createdAt,value
2024-02-19T00:00:15.978Z,6.82
2024-02-19T00:02:45.093Z,6.82
2024-02-19T00:05:13.365Z,5.93
2024-02-19T00:07:42.264Z,5.97
2024-02-19T00:10:10.349Z,6.47
2024-02-19T00:12:38.424Z,5.97
2024-02-19T00:15:09.108Z,6.07
2024-02-19T00:20:05.993Z,5.75
2024-02-19T00:22:33.946Z,6.38
2024-02-19T00:25:02.467Z,5.90
2024-02-19T00:27:30.350Z,5.57
2024-02-19T00:29:58.245Z,5.57
2024-02-19T00:32:27.544Z,5.60
2024-02-19T00:34:55.385Z,6.10
2024-02-19T00:37:24.678Z,6.15
2024-02-19T00:39:53.058Z,5.68
2024-02-19T00:42:20.707Z,6.30
2024-02-19T00:44:49.195Z,6.20
2024-02-19T00:47:17.323Z,6.40
2024-02-19T00:49:45.453Z,6.32
2024-02-19T00:52:13.682Z,6.75
2024-02-19T00:54:46.883Z,6.53
2024-02-19T00:57:15.221Z,6.47
2024-02-19T00:59:43.572Z,6.57
2024-02-19T01:02:11.676Z,6.53
2024-02-19T01:04:39.936Z,6.15
2024-02-19T01:07:07.735Z,6.18
2024-02-19T01:09:35.745Z,7.10
2024-02-19T01:12:04.116Z,6.05
2024-02-19T01:14:32.314Z,6.20
2024-02-19T01:17:01.756Z,6.25
2024-02-19T01:19:29.716Z,6.70
2024-02-19T01:21:58.508Z,7.18
2024-02-19T01:24:26.559Z,6.22
2024-02-19T01:26:54.457Z,7.13
2024-02-19T01:29:22.766Z,7.47
2024-02-19T01:31:51.872Z,5.18
2024-02-19T01:34:19.992Z,6.65
2024-02-19T01:36:48.141Z,6.38
2024-02-19T01:39:17.736Z,6.50
2024-02-19T01:41:45.951Z,5.25
2024-02-19T01:44:13.891Z,6.07
2024-02-19T01:46:44.179Z,5.45
2024-02-19T01:49:12.596Z,6.43
2024-02-19T01:51:41.984Z,5.50
2024-02-19T01:54:11.160Z,6.03
2024-02-19T01:56:40.435Z,6.13
2024-02-19T01:59:10.566Z,5.63
2024-02-19T02:01:40.325Z,6.60
2024-02-19T02:04:09.942Z,5.53
2024-02-19T02:06:38.548Z,5.82
2024-02-19T02:09:08.300Z,6.00
2024-02-19T02:11:36.044Z,5.35
2024-02-19T02:14:04.554Z,5.95
2024-02-19T02:16:32.878Z,5.55
2024-02-19T02:19:01.139Z,5.60
2024-02-19T02:21:29.124Z,5.72
2024-02-19T02:23:57.065Z,6.18
2024-02-19T02:26:25.326Z,5.07
2024-02-19T02:28:53.226Z,5.05
2024-02-19T02:31:20.993Z,6.18
2024-02-19T02:33:49.161Z,5.07
2024-02-19T02:36:17.164Z,5.32
2024-02-19T02:38:45.035Z,5.25
2024-02-19T02:41:12.598Z,4.50
2024-02-19T02:43:40.504Z,5.38
2024-02-19T02:46:09.097Z,4.75
2024-02-19T02:48:36.674Z,5.03
2024-02-19T02:51:04.415Z,4.03
2024-02-19T02:53:31.923Z,5.25
2024-02-19T02:55:59.508Z,4.32
2024-02-19T02:58:27.485Z,5.13
2024-02-19T03:00:56.014Z,5.00
2024-02-19T03:03:23.588Z,4.20
2024-02-19T03:05:51.106Z,4.50
2024-02-19T03:08:18.603Z,4.93
2024-02-19T03:10:46.258Z,4.65
2024-02-19T03:13:13.838Z,4.15
2024-02-19T03:15:41.496Z,4.80
2024-02-19T03:18:09.831Z,4.63
2024-02-19T03:20:37.799Z,4.57
2024-02-19T03:23:05.435Z,4.28
2024-02-19T03:25:33.177Z,4.80
2024-02-19T03:28:01.931Z,4.65
2024-02-19T03:30:31.364Z,4.32
2024-02-19T03:32:59.169Z,4.53
2024-02-19T03:35:26.747Z,4.75
2024-02-19T03:37:54.161Z,4.25
2024-02-19T03:40:21.774Z,4.32
2024-02-19T03:42:49.624Z,4.30
2024-02-19T03:45:19.446Z,3.33
2024-02-19T03:47:47.386Z,4.30
2024-02-19T03:50:15.076Z,3.97
2024-02-19T03:52:42.674Z,3.78
2024-02-19T03:55:10.414Z,4.10
2024-02-19T03:57:38.105Z,4.53
2024-02-19T04:00:08.259Z,4.13
2024-02-19T04:02:35.734Z,4.05
2024-02-19T04:05:03.555Z,5.18
2024-02-19T04:07:31.231Z,3.97
2024-02-19T04:09:58.754Z,3.90
2024-02-19T04:12:26.308Z,3.92
2024-02-19T04:14:53.814Z,3.80
2024-02-19T04:17:21.249Z,3.80
2024-02-19T04:19:48.800Z,4.72
2024-02-19T04:22:16.503Z,4.13
2024-02-19T04:24:44.211Z,3.38
2024-02-19T04:27:11.871Z,3.50
2024-02-19T04:29:40.171Z,3.67
2024-02-19T04:32:07.659Z,3.55
2024-02-19T04:34:39.334Z,3.70
2024-02-19T04:37:09.197Z,3.85
2024-02-19T04:39:36.926Z,4.32
2024-02-19T04:42:05.015Z,3.85
2024-02-19T04:44:32.590Z,4.13
2024-02-19T04:47:00.156Z,4.07
2024-02-19T04:49:28.723Z,3.90
2024-02-19T04:51:56.358Z,4.80
2024-02-19T04:54:23.965Z,3.70
2024-02-19T04:56:51.684Z,4.53
2024-02-19T04:59:19.236Z,4.10
2024-02-19T05:01:46.795Z,4.25
2024-02-19T05:04:14.598Z,4.53
2024-02-19T05:06:42.161Z,4.00
2024-02-19T05:09:09.794Z,3.90
2024-02-19T05:11:37.463Z,4.40
2024-02-19T05:14:05.166Z,4.50
2024-02-19T05:16:32.726Z,3.67
2024-02-19T05:19:01.512Z,5.13
2024-02-19T05:21:29.346Z,5.03
2024-02-19T05:23:56.955Z,4.45
2024-02-19T05:26:28.425Z,5.47
2024-02-19T05:28:56.680Z,6.40
2024-02-19T05:31:38.680Z,6.78
2024-02-19T05:34:07.823Z,7.07
2024-02-19T05:36:36.258Z,6.57
2024-02-19T05:39:04.063Z,7.43
2024-02-19T05:41:31.685Z,6.90
2024-02-19T05:43:59.247Z,7.80
2024-02-19T05:46:26.875Z,7.22
2024-02-19T05:48:54.608Z,7.90
2024-02-19T05:51:23.292Z,8.18
2024-02-19T05:53:50.831Z,7.82
2024-02-19T05:56:19.310Z,7.43
2024-02-19T05:58:48.614Z,7.68
2024-02-19T06:01:17.869Z,8.32
2024-02-19T06:03:45.846Z,7.43
2024-02-19T06:06:13.495Z,8.20
2024-02-19T06:08:41.155Z,7.82
2024-02-19T06:11:08.659Z,8.15
2024-02-19T06:13:36.437Z,7.97
2024-02-19T06:16:04.290Z,6.95
2024-02-19T06:18:32.682Z,7.53
2024-02-19T06:21:00.342Z,7.00
2024-02-19T06:23:27.941Z,6.63
2024-02-19T06:25:55.473Z,5.80
2024-02-19T06:28:23.009Z,5.80
2024-02-19T06:30:50.594Z,6.20
2024-02-19T06:33:18.327Z,5.97
2024-02-19T06:35:45.957Z,6.30
2024-02-19T06:38:13.433Z,6.00
2024-02-19T06:40:41.097Z,6.30
2024-02-19T06:43:08.817Z,5.75
2024-02-19T06:45:36.326Z,5.05
2024-02-19T06:48:05.505Z,4.60
2024-02-19T06:50:33.424Z,5.60
2024-02-19T06:53:01.181Z,4.63
2024-02-19T06:55:28.973Z,4.43
2024-02-19T06:57:56.545Z,5.05
2024-02-19T07:00:24.435Z,4.85
2024-02-19T07:02:52.218Z,4.65
2024-02-19T07:05:21.140Z,4.15
2024-02-19T07:07:48.838Z,4.07
2024-02-19T07:10:16.558Z,3.97
2024-02-19T07:12:44.097Z,3.50
2024-02-19T07:15:11.729Z,4.03
2024-02-19T07:17:39.365Z,3.42
2024-02-19T07:20:08.012Z,3.10
2024-02-19T07:22:35.683Z,3.58
2024-02-19T07:25:13.464Z,3.28
2024-02-19T07:27:48.352Z,3.97
2024-02-19T07:30:16.232Z,3.05
2024-02-19T07:32:44.258Z,3.83
2024-02-19T07:35:11.955Z,3.20
2024-02-19T07:37:39.568Z,3.13
2024-02-19T07:40:07.958Z,2.92
2024-02-19T07:42:35.558Z,4.35
2024-02-19T07:45:03.216Z,3.45
2024-02-19T07:47:30.967Z,3.28
2024-02-19T07:49:58.610Z,3.20
2024-02-19T07:52:26.141Z,2.97
2024-02-19T07:54:53.744Z,2.95
2024-02-19T07:57:21.348Z,2.92
2024-02-19T07:59:48.937Z,3.03
2024-02-19T08:02:17.053Z,3.40
2024-02-19T08:04:45.053Z,3.22
2024-02-19T08:07:12.786Z,2.47
2024-02-19T08:09:40.490Z,3.33
2024-02-19T08:12:09.586Z,3.20
2024-02-19T08:14:37.156Z,2.25
2024-02-19T08:17:05.237Z,2.72
2024-02-19T08:19:34.434Z,4.15
2024-02-19T08:22:02.198Z,4.00
2024-02-19T08:24:29.805Z,3.55
2024-02-19T08:26:57.496Z,3.30
2024-02-19T08:29:25.144Z,2.60
2024-02-19T08:31:52.715Z,2.92
2024-02-19T08:34:20.267Z,2.72
2024-02-19T08:36:47.863Z,3.70
2024-02-19T08:39:15.452Z,2.85
2024-02-19T08:41:43.672Z,2.42
2024-02-19T08:44:11.298Z,2.90
2024-02-19T08:46:39.134Z,3.15
2024-02-19T08:49:10.171Z,2.60
2024-02-19T08:51:37.829Z,3.63
2024-02-19T08:54:06.049Z,3.17
2024-02-19T08:56:33.648Z,2.60
2024-02-19T08:59:04.993Z,3.17
2024-02-19T09:01:33.504Z,2.88
2024-02-19T09:04:01.427Z,3.28
2024-02-19T09:06:29.020Z,3.13
2024-02-19T09:08:56.626Z,3.15
2024-02-19T09:11:24.587Z,3.30
2024-02-19T09:13:52.189Z,3.25
2024-02-19T09:16:19.770Z,3.47
2024-02-19T09:18:47.388Z,2.55
2024-02-19T09:21:14.894Z,3.25
2024-02-19T09:23:42.490Z,3.20
2024-02-19T09:26:16.647Z,4.10
2024-02-19T09:28:45.249Z,3.05
2024-02-19T09:31:13.833Z,3.80
2024-02-19T09:33:41.646Z,3.50
2024-02-19T09:36:13.250Z,3.55
2024-02-19T09:38:40.848Z,3.25
2024-02-19T09:41:08.584Z,2.90
2024-02-19T09:43:36.210Z,3.35
2024-02-19T09:46:05.097Z,3.90
2024-02-19T09:48:34.381Z,2.75
2024-02-19T09:51:04.482Z,3.00
2024-02-19T09:53:35.232Z,4.40
2024-02-19T09:56:02.964Z,3.33
2024-02-19T09:58:31.886Z,3.60
2024-02-19T10:00:59.516Z,3.53
2024-02-19T10:03:27.684Z,2.33
2024-02-19T10:05:55.609Z,3.08
2024-02-19T10:08:24.865Z,4.78
2024-02-19T10:11:01.591Z,3.28
2024-02-19T10:13:29.275Z,3.38
2024-02-19T10:15:56.787Z,3.10
2024-02-19T10:18:24.864Z,3.17
2024-02-19T10:20:52.647Z,3.08
2024-02-19T10:23:23.863Z,2.97
2024-02-19T10:25:53.413Z,3.88
2024-02-19T10:28:23.267Z,3.63
2024-02-19T10:30:51.454Z,3.50
2024-02-19T10:33:20.874Z,3.72
2024-02-19T10:35:51.772Z,3.33
2024-02-19T10:38:19.624Z,4.00
2024-02-19T10:40:48.074Z,3.30
2024-02-19T10:43:19.025Z,3.45
2024-02-19T10:45:52.189Z,3.63
2024-02-19T10:48:19.893Z,3.00
2024-02-19T10:50:51.475Z,3.05
2024-02-19T10:53:20.914Z,3.33
2024-02-19T10:55:55.682Z,3.60
2024-02-19T10:58:28.653Z,2.83
2024-02-19T11:01:01.852Z,3.72
2024-02-19T11:03:29.702Z,3.70
2024-02-19T11:06:02.964Z,3.72
2024-02-19T11:08:36.159Z,3.72
2024-02-19T11:11:05.026Z,3.55
2024-02-19T11:13:37.480Z,3.65
2024-02-19T11:16:19.476Z,3.70
2024-02-19T11:18:47.674Z,3.78
2024-02-19T11:21:16.314Z,4.10
2024-02-19T11:23:44.617Z,3.30
2024-02-19T11:26:13.886Z,4.35
2024-02-19T11:28:41.747Z,3.72
2024-02-19T11:31:14.700Z,3.08
2024-02-19T11:33:42.222Z,3.38
2024-02-19T11:36:09.710Z,3.65
2024-02-19T11:38:39.934Z,4.45
2024-02-19T11:41:10.833Z,2.58
2024-02-19T11:43:41.660Z,3.17
2024-02-19T11:48:37.378Z,3.03
2024-02-19T11:51:06.296Z,2.90
2024-02-19T11:53:33.813Z,2.92
2024-02-19T11:56:02.216Z,2.85
2024-02-19T11:58:29.937Z,2.80
2024-02-19T12:00:58.020Z,2.88
2024-02-19T12:03:28.718Z,2.97
2024-02-19T12:06:01.868Z,3.60
2024-02-19T12:08:31.599Z,3.42
2024-02-19T12:10:59.765Z,2.90
2024-02-19T12:13:27.682Z,3.08
2024-02-19T12:15:55.430Z,2.42
2024-02-19T12:18:23.054Z,2.92
2024-02-19T12:20:50.688Z,2.97
2024-02-19T12:23:18.232Z,2.65
2024-02-19T12:25:45.810Z,2.28
2024-02-19T12:28:13.653Z,1.55
2024-02-19T12:30:41.315Z,1.85
2024-02-19T12:33:09.414Z,1.88
2024-02-19T12:35:39.882Z,2.03
2024-02-19T12:38:09.168Z,1.88
2024-02-19T12:40:36.780Z,2.17
2024-02-19T12:43:05.459Z,2.00
2024-02-19T12:45:33.136Z,2.75
2024-02-19T12:48:00.856Z,2.00
2024-02-19T12:50:29.202Z,2.00
2024-02-19T12:52:57.415Z,1.88
2024-02-19T12:55:25.250Z,2.40
2024-02-19T12:57:52.760Z,2.00
2024-02-19T13:00:21.093Z,2.33
2024-02-19T13:02:48.637Z,2.30
2024-02-19T13:05:16.404Z,1.73
2024-02-19T13:07:44.607Z,1.98
2024-02-19T13:10:12.334Z,2.03
2024-02-19T13:12:40.102Z,2.15
2024-02-19T13:15:08.681Z,2.08
2024-02-19T13:17:42.989Z,2.00
2024-02-19T13:20:16.103Z,1.90
2024-02-19T13:22:44.340Z,2.35
2024-02-19T13:25:12.379Z,2.47
2024-02-19T13:27:40.584Z,2.28
2024-02-19T13:30:10.749Z,1.70
2024-02-19T13:32:38.841Z,2.40
2024-02-19T13:35:11.386Z,2.60
2024-02-19T13:37:41.075Z,2.72
2024-02-19T13:40:12.210Z,1.88
2024-02-19T13:42:40.518Z,2.05
2024-02-19T13:45:10.570Z,2.00
2024-02-19T13:47:41.421Z,2.50
2024-02-19T13:55:09.587Z,2.30
2024-02-19T13:57:37.379Z,2.47
2024-02-19T14:00:06.668Z,2.30
2024-02-19T14:02:34.409Z,2.22
2024-02-19T14:05:02.850Z,2.47
2024-02-19T14:07:31.192Z,2.53
2024-02-19T14:09:58.986Z,2.28
2024-02-19T14:12:26.545Z,2.25
2024-02-19T14:14:54.261Z,2.03
2024-02-19T14:17:21.744Z,2.47
2024-02-19T14:19:49.294Z,2.50
2024-02-19T14:22:16.938Z,2.28
2024-02-19T14:24:44.639Z,2.35
2024-02-19T14:27:12.275Z,2.50
2024-02-19T14:29:40.043Z,2.03
2024-02-19T14:32:07.703Z,2.25
2024-02-19T14:34:35.871Z,3.13
2024-02-19T14:37:03.696Z,2.25
2024-02-19T14:39:31.794Z,2.60
2024-02-19T14:41:59.725Z,2.28
2024-02-19T14:44:28.350Z,2.40
2024-02-19T14:47:02.370Z,1.83
2024-02-19T14:49:34.812Z,2.35
2024-02-19T14:52:02.847Z,1.90
2024-02-19T14:54:30.429Z,2.92
2024-02-19T14:57:00.138Z,2.75
2024-02-19T14:59:29.324Z,2.00
2024-02-19T15:01:58.101Z,2.80
2024-02-19T15:04:26.250Z,2.28
2024-02-19T15:06:56.474Z,3.13
2024-02-19T15:09:25.050Z,2.70
2024-02-19T15:11:52.640Z,2.88
2024-02-19T15:14:20.282Z,2.50
2024-02-19T15:16:48.046Z,2.40
2024-02-19T15:19:17.181Z,2.80
2024-02-19T15:21:44.841Z,2.70
2024-02-19T15:24:12.359Z,2.10
2024-02-19T15:26:40.340Z,2.45
2024-02-19T15:29:07.781Z,2.85
2024-02-19T15:31:37.896Z,3.15
2024-02-19T15:34:08.438Z,3.67
2024-02-19T15:36:36.426Z,3.35
2024-02-19T15:39:04.134Z,2.95
2024-02-19T15:41:33.617Z,3.00
2024-02-19T15:44:05.348Z,3.72
2024-02-19T15:46:33.502Z,3.85
2024-02-19T15:49:01.836Z,3.78
2024-02-19T15:51:30.836Z,3.70
2024-02-19T15:53:58.835Z,3.58
2024-02-19T15:56:26.945Z,4.15
2024-02-19T15:58:54.786Z,3.58
2024-02-19T16:01:22.524Z,3.60
2024-02-19T16:03:53.324Z,2.78
2024-02-19T16:07:45.177Z,4.40
2024-02-19T16:10:14.812Z,2.97
2024-02-19T16:12:42.618Z,4.43
2024-02-19T16:15:10.314Z,3.50
2024-02-19T16:17:38.154Z,3.05
2024-02-19T16:20:08.513Z,3.50
2024-02-19T16:22:36.640Z,3.58
2024-02-19T16:25:07.841Z,3.55
2024-02-19T16:27:36.798Z,3.03
2024-02-19T16:30:07.222Z,3.15
2024-02-19T16:32:36.989Z,3.17
2024-02-19T16:35:05.322Z,3.50
2024-02-19T16:37:33.604Z,3.10
2024-02-19T16:40:01.388Z,3.47
2024-02-19T16:42:28.996Z,3.05
2024-02-19T16:44:56.528Z,3.10
2024-02-19T16:47:24.114Z,3.50
2024-02-19T16:49:51.634Z,3.15
2024-02-19T16:52:19.155Z,3.05
2024-02-19T16:54:46.824Z,3.58
2024-02-19T16:57:14.331Z,3.47
2024-02-19T16:59:41.874Z,3.03
2024-02-19T17:02:09.552Z,2.95
2024-02-19T17:04:37.873Z,3.08
2024-02-19T17:07:07.044Z,3.28
2024-02-19T17:09:35.573Z,3.60
2024-02-19T17:12:05.228Z,2.70
2024-02-19T17:14:32.828Z,3.35
2024-02-19T17:17:00.491Z,3.72
2024-02-19T17:19:28.449Z,3.13
2024-02-19T17:21:56.204Z,3.63
2024-02-19T17:24:23.757Z,3.65
2024-02-19T17:26:51.732Z,3.33
2024-02-19T17:29:19.229Z,3.65
2024-02-19T17:31:50.227Z,3.92
2024-02-19T17:34:18.729Z,3.28
2024-02-19T17:36:47.670Z,3.65
2024-02-19T17:39:15.499Z,3.50
2024-02-19T17:41:43.175Z,3.03
2024-02-19T17:44:11.285Z,3.45
2024-02-19T17:46:38.898Z,3.58
2024-02-19T17:49:11.537Z,3.40
2024-02-19T17:51:39.240Z,3.28
2024-02-19T17:54:10.514Z,3.85
2024-02-19T17:56:40.664Z,3.83
2024-02-19T17:59:12.871Z,3.80
2024-02-19T18:01:40.614Z,3.60
2024-02-19T18:04:08.299Z,3.78
2024-02-19T18:06:37.108Z,3.05
2024-02-19T18:09:05.390Z,3.83
2024-02-19T18:11:33.711Z,4.13
2024-02-19T18:14:01.295Z,3.58
2024-02-19T18:16:29.197Z,4.03
2024-02-19T18:18:58.282Z,3.70
2024-02-19T18:21:26.001Z,3.47
2024-02-19T18:23:55.337Z,4.13
2024-02-19T18:26:25.341Z,3.78
2024-02-19T18:28:54.863Z,4.67
2024-02-19T18:31:22.340Z,3.72
2024-02-19T18:33:50.355Z,3.42
2024-02-19T18:36:17.908Z,3.72
2024-02-19T18:38:48.523Z,4.07
2024-02-19T18:41:16.200Z,4.15
2024-02-19T18:43:44.806Z,4.22
2024-02-19T18:46:12.277Z,4.07
2024-02-19T18:48:40.009Z,4.70
2024-02-19T18:51:11.906Z,4.65
2024-02-19T18:53:40.366Z,5.30
2024-02-19T18:56:07.993Z,4.90
2024-02-19T18:58:35.626Z,5.03
2024-02-19T19:01:05.402Z,5.05
2024-02-19T19:03:33.599Z,4.25
2024-02-19T19:06:05.497Z,4.13
2024-02-19T19:08:33.943Z,4.18
2024-02-19T19:11:01.590Z,4.25
2024-02-19T19:13:29.477Z,4.85
2024-02-19T19:15:57.649Z,4.38
2024-02-19T19:18:25.662Z,4.95
2024-02-19T19:20:53.257Z,5.05
2024-02-19T19:23:20.775Z,5.13
2024-02-19T19:25:48.338Z,5.30
2024-02-19T19:28:17.063Z,5.43
2024-02-19T19:30:46.240Z,6.28
2024-02-19T19:33:15.708Z,6.00
2024-02-19T19:35:48.816Z,6.22
2024-02-19T19:38:17.218Z,4.97
2024-02-19T19:40:45.090Z,5.80
2024-02-19T19:43:12.968Z,6.82
2024-02-19T19:45:40.512Z,6.05
2024-02-19T19:48:08.433Z,7.80
2024-02-19T19:50:36.928Z,7.47
2024-02-19T19:53:04.653Z,7.20
2024-02-19T19:55:32.482Z,8.07
2024-02-19T19:58:00.311Z,6.32
2024-02-19T20:00:28.543Z,7.03
2024-02-19T20:02:57.593Z,6.65
2024-02-19T20:05:25.502Z,5.68
2024-02-19T20:07:53.222Z,5.13
2024-02-19T20:10:20.917Z,5.13
2024-02-19T20:12:50.703Z,5.70
2024-02-19T20:15:18.419Z,6.60
2024-02-19T20:17:45.935Z,5.95
2024-02-19T20:20:14.019Z,5.90
2024-02-19T20:22:41.759Z,6.97
2024-02-19T20:25:10.035Z,5.22
2024-02-19T20:27:38.278Z,5.35
2024-02-19T20:30:07.828Z,4.97
2024-02-19T20:32:35.505Z,4.85
2024-02-19T20:35:04.208Z,5.38
2024-02-19T20:37:31.995Z,4.93
2024-02-19T20:40:03.130Z,5.78
2024-02-19T20:42:30.841Z,5.43
2024-02-19T20:44:58.673Z,6.78
2024-02-19T20:47:26.530Z,7.10
2024-02-19T20:49:55.502Z,7.15
2024-02-19T20:52:23.257Z,7.47
2024-02-19T20:54:56.090Z,13.82
2024-02-19T20:57:26.083Z,23.83
2024-02-19T20:59:53.774Z,13.18
2024-02-19T21:02:21.551Z,17.70
2024-02-19T21:04:50.356Z,8.25
2024-02-19T21:07:18.462Z,21.42
2024-02-19T21:09:46.109Z,6.20
2024-02-19T21:12:13.722Z,11.18
2024-02-19T21:14:41.395Z,11.60
2024-02-19T21:17:09.162Z,13.55
2024-02-19T21:19:36.928Z,6.78
2024-02-19T21:22:05.325Z,9.95
2024-02-19T21:24:32.958Z,7.35
2024-02-19T21:27:02.142Z,6.63
2024-02-19T21:29:31.521Z,5.53
2024-02-19T21:31:59.513Z,5.65
2024-02-19T21:34:27.253Z,5.65
2024-02-19T21:36:58.040Z,5.18
2024-02-19T21:41:53.922Z,5.35
2024-02-19T21:44:22.994Z,4.55
2024-02-19T21:46:50.530Z,5.43
2024-02-19T21:49:20.475Z,4.95
2024-02-19T21:51:48.471Z,5.32
2024-02-19T21:54:16.256Z,5.63
2024-02-19T21:56:43.873Z,6.60
2024-02-19T21:59:11.456Z,7.35
2024-02-19T22:01:39.119Z,7.85
2024-02-19T22:04:09.230Z,5.72
2024-02-19T22:06:37.069Z,5.93
2024-02-19T22:09:04.702Z,5.18
2024-02-19T22:11:32.454Z,5.63
2024-02-19T22:14:00.809Z,5.47
2024-02-19T22:16:28.450Z,6.22
2024-02-19T22:18:56.197Z,5.57
2024-02-19T22:21:23.925Z,5.00
2024-02-19T22:24:21.811Z,5.63
2024-02-19T22:26:49.460Z,6.03
2024-02-19T22:29:17.106Z,5.40
2024-02-19T22:31:45.172Z,5.88
2024-02-19T22:34:13.097Z,6.53
2024-02-19T22:36:41.165Z,6.03
2024-02-19T22:39:10.808Z,5.28
2024-02-19T22:41:42.691Z,6.07
2024-02-19T22:44:10.308Z,5.75
2024-02-19T22:46:37.837Z,5.82
2024-02-19T22:49:05.626Z,6.72
2024-02-19T22:51:33.578Z,6.20
2024-02-19T22:54:01.209Z,6.22
2024-02-19T22:56:28.714Z,6.28
2024-02-19T22:59:06.602Z,5.45
2024-02-19T23:01:39.062Z,5.88
2024-02-19T23:04:06.658Z,5.00
2024-02-19T23:06:34.676Z,5.07
2024-02-19T23:09:03.214Z,5.10
2024-02-19T23:11:31.899Z,5.05
2024-02-19T23:13:59.571Z,4.82
2024-02-19T23:16:28.718Z,5.00
2024-02-19T23:18:56.395Z,5.00
2024-02-19T23:21:24.054Z,6.20
2024-02-19T23:23:51.797Z,6.85
2024-02-19T23:26:19.336Z,5.55
2024-02-19T23:28:47.847Z,5.20
2024-02-19T23:31:15.522Z,5.40
2024-02-19T23:33:43.303Z,4.75
2024-02-19T23:36:11.070Z,5.18
2024-02-19T23:38:40.762Z,5.50
2024-02-19T23:41:08.290Z,4.80
2024-02-19T23:43:36.151Z,5.20
2024-02-19T23:46:04.068Z,5.72
2024-02-19T23:48:32.311Z,4.60
2024-02-19T23:50:59.818Z,5.28
2024-02-19T23:53:28.386Z,5.18
2024-02-19T23:55:56.020Z,5.35
2024-02-19T23:58:26.449Z,4.57
